Time;durP1;ratioP1;P1;durP2;ratioP2;P2;SDS_P1;SDS_P2;PMS_P1;PMS_P2;Temp;Humidity;BMP_temperature;BMP_pressure;BME280_temperature;BME280_humidity;BME280_pressure;Samples;Min_cycle;Max_cycle;Signal;HPM_P1;HPM_P2
2023/06/04 00:01:04;;;;;;;7.55;6.70;;;17.60;99.90;;;;;;5014768;28;20380;-84
2023/06/04 00:03:30;;;;;;;7.17;6.43;;;17.60;99.90;;;;;;5014258;28;20408;-84
2023/06/04 00:05:56;;;;;;;7.80;7.00;;;17.50;99.90;;;;;;4996181;28;20951;-84
2023/06/04 00:08:22;;;;;;;8.30;7.00;;;17.40;99.90;;;;;;5013995;28;20455;-85
2023/06/04 00:10:47;;;;;;;7.45;6.75;;;17.40;99.90;;;;;;4996399;28;20383;-84
2023/06/04 00:13:13;;;;;;;8.07;7.27;;;17.30;99.90;;;;;;4996701;28;20427;-83
2023/06/04 00:15:38;;;;;;;7.60;6.90;;;17.40;99.90;;;;;;5012689;28;20401;-85
2023/06/04 00:18:04;;;;;;;6.93;6.30;;;17.50;99.90;;;;;;4996395;28;20755;-85
2023/06/04 00:20:29;;;;;;;8.00;7.30;;;17.30;99.90;;;;;;5009523;23;20439;-86
2023/06/04 00:22:55;;;;;;;8.40;6.63;;;17.30;99.90;;;;;;4975589;28;20416;-86
2023/06/04 00:25:20;;;;;;;8.17;7.37;;;17.30;99.90;;;;;;4973769;28;20810;-87
2023/06/04 00:27:46;;;;;;;7.30;6.60;;;17.20;99.90;;;;;;4994895;28;20378;-86
2023/06/04 00:30:12;;;;;;;9.65;7.28;;;17.20;99.90;;;;;;4994454;28;20525;-86
2023/06/04 00:32:38;;;;;;;9.00;7.50;;;17.00;99.90;;;;;;4980039;28;20400;-85
2023/06/04 00:35:03;;;;;;;8.00;7.20;;;16.90;99.90;;;;;;4975725;28;20871;-86
2023/06/04 00:37:29;;;;;;;8.45;7.65;;;16.90;99.90;;;;;;4974733;28;20392;-85
2023/06/04 00:39:55;;;;;;;7.63;6.93;;;16.80;99.90;;;;;;4974919;28;20963;-86
2023/06/04 00:42:21;;;;;;;8.37;7.57;;;16.80;99.90;;;;;;4981928;28;20401;-86
2023/06/04 00:44:47;;;;;;;10.10;8.10;;;16.90;99.90;;;;;;4974004;28;20495;-85
2023/06/04 00:47:13;;;;;;;9.70;8.00;;;16.80;99.90;;;;;;4973940;28;20400;-86
2023/06/04 00:49:41;;;;;;;8.30;7.50;;;16.80;99.90;;;;;;4981158;28;20392;-85
2023/06/04 00:52:10;;;;;;;8.40;7.50;;;16.70;99.90;;;;;;4996193;28;20396;-86
2023/06/04 00:54:37;;;;;;;7.60;6.90;;;16.50;99.90;;;;;;4996022;28;20403;-86
2023/06/04 00:57:04;;;;;;;7.22;6.53;;;16.40;99.90;;;;;;4996317;28;20403;-85
2023/06/04 00:59:34;;;;;;;7.20;6.57;;;16.40;99.90;;;;;;4980594;28;20411;-85
2023/06/04 01:02:11;;;;;;;8.40;7.28;;;16.40;99.90;;;;;;4997734;28;20388;-87
2023/06/04 01:05:19;;;;;;;7.80;7.10;;;16.30;99.90;;;;;;4987796;28;20428;-85
2023/06/04 01:07:46;;;;;;;7.80;7.00;;;16.30;99.90;;;;;;4987425;28;20466;-86
2023/06/04 01:10:13;;;;;;;8.32;7.53;;;16.30;99.90;;;;;;4993763;28;21141;-85
2023/06/04 01:12:42;;;;;;;8.63;7.40;;;16.30;99.90;;;;;;4984329;28;20785;-85
2023/06/04 01:15:08;;;;;;;8.25;7.40;;;16.20;99.90;;;;;;5018518;28;20503;-85
2023/06/04 01:17:41;;;;;;;7.45;6.75;;;16.10;99.90;;;;;;4978535;28;20415;-85
2023/06/04 01:20:37;;;;;;;8.10;7.15;;;16.10;99.90;;;;;;4973308;28;20403;-86
2023/06/04 01:23:33;;;;;;;8.10;7.30;;;16.00;99.90;;;;;;4972688;28;20779;-85
2023/06/04 01:26:03;;;;;;;8.00;7.30;;;16.10;99.90;;;;;;4973824;28;20380;-85
2023/06/04 01:28:34;;;;;;;8.45;7.65;;;16.10;99.90;;;;;;4974730;28;20380;-86
2023/06/04 01:31:01;;;;;;;8.20;7.32;;;16.00;99.90;;;;;;4974837;28;20833;-85
2023/06/04 01:33:27;;;;;;;7.63;6.93;;;16.00;99.90;;;;;;4973627;28;20404;-86
2023/06/04 01:35:53;;;;;;;8.38;7.55;;;15.90;99.90;;;;;;4973908;28;20414;-85
2023/06/04 01:38:19;;;;;;;8.88;8.07;;;16.00;99.90;;;;;;4974707;28;20392;-85
2023/06/04 01:40:45;;;;;;;7.80;7.10;;;17.00;99.90;;;;;;4975016;28;20392;-86
2023/06/04 01:43:11;;;;;;;8.43;7.63;;;16.30;99.90;;;;;;4972932;28;20466;-86
2023/06/04 01:45:37;;;;;;;8.10;7.33;;;16.50;99.90;;;;;;4972057;28;20404;-85
2023/06/04 01:48:04;;;;;;;7.88;7.07;;;16.30;99.90;;;;;;4972754;28;20399;-86
2023/06/04 01:50:30;;;;;;;8.23;7.32;;;16.30;99.90;;;;;;4971808;28;20388;-86
2023/06/04 01:52:56;;;;;;;8.02;7.22;;;16.30;99.90;;;;;;4972675;28;20395;-86
2023/06/04 01:55:24;;;;;;;8.60;7.80;;;16.30;99.90;;;;;;4973485;28;20396;-86
2023/06/04 01:57:50;;;;;;;8.20;7.10;;;16.20;99.90;;;;;;4971668;28;20397;-86
2023/06/04 02:00:17;;;;;;;8.60;7.30;;;15.90;99.90;;;;;;4971969;28;20488;-86
2023/06/04 02:02:45;;;;;;;8.45;7.10;;;15.80;99.90;;;;;;4973620;28;20396;-86
2023/06/04 02:05:11;;;;;;;8.00;7.20;;;15.70;99.90;;;;;;4973517;28;20466;-85
2023/06/04 02:07:38;;;;;;;8.43;7.63;;;15.60;99.90;;;;;;4971659;28;20472;-86
2023/06/04 02:10:08;;;;;;;8.10;7.30;;;15.60;99.90;;;;;;4972189;28;20913;-86
2023/06/04 02:12:37;;;;;;;8.55;7.70;;;15.60;99.90;;;;;;4963460;28;20456;-85
2023/06/04 02:15:03;;;;;;;8.00;7.20;;;15.50;99.90;;;;;;4962218;28;20417;-86
2023/06/04 02:17:32;;;;;;;9.13;7.68;;;15.60;99.90;;;;;;4991061;28;20441;-85
2023/06/04 02:19:58;;;;;;;8.70;7.25;;;15.60;99.90;;;;;;4991455;28;20444;-85
2023/06/04 02:22:24;;;;;;;10.40;8.18;;;15.60;99.90;;;;;;5009584;28;20382;-85
2023/06/04 02:24:50;;;;;;;9.07;7.70;;;15.60;99.90;;;;;;5015428;28;20413;-86
2023/06/04 02:27:15;;;;;;;8.87;7.97;;;15.60;99.90;;;;;;5017194;28;20425;-86
2023/06/04 02:29:41;;;;;;;9.40;7.90;;;15.50;99.90;;;;;;5015925;28;20413;-87
2023/06/04 02:32:07;;;;;;;7.65;6.95;;;15.40;99.90;;;;;;4998740;28;20875;-86
2023/06/04 02:34:36;;;;;;;7.80;7.10;;;15.30;99.90;;;;;;4976070;28;20517;-85
2023/06/04 02:37:02;;;;;;;7.90;7.10;;;15.20;99.90;;;;;;4970507;28;20535;-86
2023/06/04 02:39:28;;;;;;;8.52;7.63;;;15.30;99.90;;;;;;4972606;28;20410;-85
2023/06/04 02:41:53;;;;;;;8.07;7.30;;;15.20;99.90;;;;;;4971408;28;20392;-86
2023/06/04 02:44:19;;;;;;;8.20;7.40;;;15.10;99.90;;;;;;4971775;28;20416;-86
2023/06/04 02:46:45;;;;;;;8.00;7.20;;;15.10;99.90;;;;;;4970849;28;20402;-85
2023/06/04 02:49:14;;;;;;;7.77;7.07;;;14.80;99.90;;;;;;4971531;28;20504;-85
2023/06/04 02:51:45;;;;;;;8.27;7.47;;;15.10;99.90;;;;;;4969552;28;20973;-85
2023/06/04 02:54:11;;;;;;;10.55;7.68;;;15.00;99.90;;;;;;4972587;28;20399;-85
2023/06/04 02:56:37;;;;;;;8.98;7.72;;;15.00;99.90;;;;;;4971605;28;20478;-86
2023/06/04 02:59:03;;;;;;;8.52;7.60;;;14.90;99.90;;;;;;4990908;28;20421;-86
2023/06/04 03:01:29;;;;;;;8.27;7.47;;;14.80;99.90;;;;;;4991514;28;20405;-86
2023/06/04 03:03:57;;;;;;;8.35;7.45;;;14.80;99.90;;;;;;4973528;28;20415;-86
2023/06/04 03:06:22;;;;;;;8.98;7.55;;;14.70;99.90;;;;;;4970535;28;20907;-85
2023/06/04 03:08:50;;;;;;;8.00;7.20;;;14.80;99.90;;;;;;4972276;28;20427;-85
2023/06/04 03:11:16;;;;;;;9.83;7.73;;;14.80;99.90;;;;;;4974402;28;20898;-84
2023/06/04 03:13:42;;;;;;;9.35;7.80;;;14.70;99.90;;;;;;4974055;28;20439;-85
2023/06/04 03:16:09;;;;;;;8.90;8.00;;;14.60;99.90;;;;;;4971675;28;20408;-85
2023/06/04 03:18:39;;;;;;;10.35;8.80;;;14.50;99.90;;;;;;4973464;28;20398;-85
2023/06/04 03:21:05;;;;;;;9.02;8.13;;;14.60;99.90;;;;;;4984807;28;20552;-85
2023/06/04 03:23:31;;;;;;;9.00;8.10;;;14.60;99.90;;;;;;4990475;28;20844;-85
2023/06/04 03:25:56;;;;;;;8.77;7.63;;;14.60;99.90;;;;;;4990659;28;20889;-85
2023/06/04 03:28:22;;;;;;;10.95;7.97;;;14.70;99.90;;;;;;4991623;28;20394;-84
2023/06/04 03:30:47;;;;;;;8.25;7.45;;;14.70;99.90;;;;;;4979870;28;20479;-85
2023/06/04 03:33:13;;;;;;;8.73;7.83;;;14.60;99.90;;;;;;4972107;28;20401;-85
2023/06/04 03:35:41;;;;;;;8.43;7.50;;;14.60;99.90;;;;;;4970711;28;20400;-85
2023/06/04 03:38:06;;;;;;;8.60;7.68;;;14.50;99.90;;;;;;4971560;28;20842;-85
2023/06/04 03:40:32;;;;;;;9.70;7.93;;;14.60;99.90;;;;;;4971320;28;20578;-85
2023/06/04 03:42:57;;;;;;;8.20;7.40;;;14.70;99.90;;;;;;4972519;28;20384;-85
2023/06/04 03:45:23;;;;;;;9.13;7.67;;;14.60;99.90;;;;;;4990304;28;20481;-85
2023/06/04 03:47:48;;;;;;;8.30;7.30;;;14.60;99.90;;;;;;4991248;28;20394;-84
2023/06/04 03:50:14;;;;;;;8.23;7.43;;;14.70;99.90;;;;;;4981913;28;20392;-85
2023/06/04 03:52:39;;;;;;;9.13;7.83;;;14.60;99.90;;;;;;4972391;28;20404;-84
2023/06/04 03:55:05;;;;;;;9.05;8.02;;;14.60;99.90;;;;;;4971828;28;20400;-84
2023/06/04 03:57:32;;;;;;;9.55;8.65;;;14.60;99.90;;;;;;4984196;28;20432;-85
2023/06/04 03:59:58;;;;;;;8.77;7.90;;;14.60;99.90;;;;;;4992856;28;20392;-85
2023/06/04 04:02:23;;;;;;;8.70;7.80;;;14.60;99.90;;;;;;4999314;28;20462;-85
2023/06/04 04:04:49;;;;;;;9.10;8.20;;;14.60;99.90;;;;;;4990474;28;20422;-85
2023/06/04 04:07:15;;;;;;;8.63;7.73;;;14.70;99.90;;;;;;5005474;28;20465;-84
2023/06/04 04:09:41;;;;;;;8.10;7.30;;;14.90;99.90;;;;;;5006677;28;20394;-86
2023/06/04 04:12:06;;;;;;;8.20;7.40;;;15.00;99.90;;;;;;4999698;28;20500;-84
2023/06/04 04:14:32;;;;;;;7.85;7.10;;;15.00;99.90;;;;;;4981965;28;20401;-84
2023/06/04 04:16:57;;;;;;;8.30;7.55;;;14.80;99.90;;;;;;4993008;28;20413;-84
2023/06/04 04:19:23;;;;;;;9.30;8.10;;;14.70;99.90;;;;;;4994805;28;20485;-84
2023/06/04 04:21:48;;;;;;;8.90;8.00;;;14.60;99.90;;;;;;4977268;28;20802;-84
2023/06/04 04:24:25;;;;;;;9.20;8.30;;;14.60;99.90;;;;;;4976230;28;20915;-85
2023/06/04 04:26:53;;;;;;;8.90;8.00;;;14.60;99.90;;;;;;4975371;28;20395;-85
2023/06/04 04:29:32;;;;;;;9.30;8.15;;;14.60;99.90;;;;;;4975913;28;20762;-84
2023/06/04 04:32:00;;;;;;;8.63;7.45;;;14.50;99.90;;;;;;4992682;28;20394;-85
2023/06/04 04:34:26;;;;;;;9.50;8.50;;;14.50;99.90;;;;;;4995117;28;20963;-84
2023/06/04 04:36:52;;;;;;;8.27;7.47;;;14.70;99.90;;;;;;4993032;28;20405;-84
2023/06/04 04:39:27;;;;;;;9.20;8.30;;;14.70;99.90;;;;;;4976935;28;20400;-84
2023/06/04 04:41:55;;;;;;;9.52;7.80;;;14.70;99.90;;;;;;4974300;28;20399;-84
2023/06/04 04:44:20;;;;;;;10.13;7.32;;;14.60;99.90;;;;;;4975289;28;20408;-84
2023/06/04 04:46:47;;;;;;;7.20;6.50;;;14.60;99.90;;;;;;4975397;28;20818;-85
2023/06/04 04:49:13;;;;;;;8.13;6.80;;;14.80;99.90;;;;;;4992077;28;20403;-85
2023/06/04 04:51:38;;;;;;;7.60;6.50;;;14.90;99.90;;;;;;5003525;28;20474;-86
2023/06/04 04:54:04;;;;;;;7.57;6.77;;;15.00;99.90;;;;;;5019616;28;20398;-85
2023/06/04 04:56:32;;;;;;;7.28;6.50;;;15.00;99.90;;;;;;5016690;28;20405;-84
2023/06/04 04:58:58;;;;;;;7.27;6.57;;;15.20;99.90;;;;;;5018578;28;20391;-85
2023/06/04 05:01:25;;;;;;;7.70;6.90;;;15.10;99.90;;;;;;5018262;28;20401;-85
2023/06/04 05:03:51;;;;;;;7.35;6.18;;;15.20;99.90;;;;;;4982550;28;20515;-85
2023/06/04 05:06:16;;;;;;;6.53;5.70;;;15.20;99.90;;;;;;4975120;28;20420;-85
2023/06/04 05:08:42;;;;;;;6.85;5.60;;;15.20;99.90;;;;;;4976621;28;20814;-85
2023/06/04 05:11:07;;;;;;;10.80;5.80;;;16.00;99.90;;;;;;4984445;28;20990;-85
2023/06/04 05:13:33;;;;;;;8.77;6.30;;;15.40;99.90;;;;;;4977784;28;20809;-85
2023/06/04 05:15:59;;;;;;;7.67;5.93;;;15.40;99.90;;;;;;4975128;28;20890;-84
2023/06/04 05:18:28;;;;;;;7.20;6.50;;;15.50;99.90;;;;;;4974637;28;20455;-84
2023/06/04 05:20:54;;;;;;;7.93;6.20;;;15.50;99.90;;;;;;5009686;28;20410;-85
2023/06/04 05:23:20;;;;;;;6.53;5.80;;;15.60;99.90;;;;;;4995157;28;20928;-84
2023/06/04 05:25:48;;;;;;;6.00;5.40;;;15.70;99.90;;;;;;4995025;28;20528;-84
2023/06/04 05:28:14;;;;;;;7.57;5.60;;;15.60;99.90;;;;;;4994041;28;20876;-85
2023/06/04 05:30:41;;;;;;;6.70;6.10;;;15.50;99.90;;;;;;4981980;28;20934;-86
2023/06/04 05:33:17;;;;;;;6.10;5.50;;;15.70;99.90;;;;;;4976787;28;20384;-85
2023/06/04 05:35:46;;;;;;;5.80;5.07;;;15.60;99.90;;;;;;4974965;28;20396;-85
2023/06/04 05:38:16;;;;;;;7.88;5.57;;;15.60;99.90;;;;;;4974651;28;20459;-85
2023/06/04 05:40:42;;;;;;;6.65;5.53;;;15.80;99.90;;;;;;4973978;28;20459;-85
2023/06/04 05:43:08;;;;;;;5.75;5.15;;;15.70;99.90;;;;;;4975416;28;20411;-85
2023/06/04 05:45:34;;;;;;;6.35;5.30;;;15.80;99.90;;;;;;4973397;28;20949;-85
2023/06/04 05:47:59;;;;;;;7.90;5.70;;;15.70;99.90;;;;;;4974883;28;20423;-86
2023/06/04 05:50:25;;;;;;;6.23;5.30;;;15.60;99.90;;;;;;4976045;28;20452;-85
2023/06/04 05:52:50;;;;;;;6.05;5.28;;;15.40;99.90;;;;;;4974810;28;20476;-85
2023/06/04 05:55:16;;;;;;;7.50;4.85;;;15.60;99.90;;;;;;4972746;28;20423;-86
2023/06/04 05:57:42;;;;;;;8.15;5.75;;;15.60;99.90;;;;;;4974108;28;20392;-85
2023/06/04 06:00:11;;;;;;;8.97;5.60;;;15.70;99.90;;;;;;4973979;28;20400;-85
2023/06/04 06:02:38;;;;;;;6.65;4.82;;;15.70;99.90;;;;;;4972917;28;20408;-85
2023/06/04 06:05:05;;;;;;;5.60;4.80;;;15.80;99.90;;;;;;4972760;28;20419;-85
2023/06/04 06:07:31;;;;;;;5.90;5.07;;;15.80;99.90;;;;;;4975209;28;20396;-86
2023/06/04 06:09:56;;;;;;;7.47;5.40;;;15.80;99.90;;;;;;4992750;28;20397;-85
2023/06/04 06:12:22;;;;;;;6.20;5.07;;;15.70;99.90;;;;;;4985859;28;20467;-85
2023/06/04 06:14:48;;;;;;;6.00;5.37;;;15.70;99.90;;;;;;4988754;28;20399;-84
2023/06/04 06:17:13;;;;;;;5.60;4.88;;;15.70;99.90;;;;;;4984348;28;20398;-84
2023/06/04 06:19:39;;;;;;;6.73;5.73;;;15.70;99.90;;;;;;4988187;28;20399;-84
2023/06/04 06:22:05;;;;;;;5.97;4.93;;;15.60;99.90;;;;;;5033353;23;20440;-84
2023/06/04 06:24:30;;;;;;;6.90;5.30;;;15.70;99.90;;;;;;5017049;28;20415;-85
2023/06/04 06:26:56;;;;;;;4.93;4.43;;;15.80;99.90;;;;;;5001079;28;20401;-84
2023/06/04 06:29:21;;;;;;;5.78;5.20;;;15.80;99.90;;;;;;4999237;28;20393;-82
2023/06/04 06:31:47;;;;;;;7.82;5.40;;;15.80;99.90;;;;;;4999513;28;20488;-82
2023/06/04 06:34:13;;;;;;;7.93;5.30;;;16.10;99.90;;;;;;5004617;28;20399;-82
2023/06/04 06:36:38;;;;;;;6.20;4.83;;;16.10;99.90;;;;;;5004030;28;20401;-81
2023/06/04 06:39:04;;;;;;;5.45;4.95;;;16.30;99.90;;;;;;5000344;28;20405;-82
2023/06/04 06:41:30;;;;;;;6.70;4.95;;;16.50;99.90;;;;;;4994282;28;20401;-84
2023/06/04 06:43:57;;;;;;;5.82;5.30;;;16.50;99.90;;;;;;4999005;28;20787;-82
2023/06/04 06:46:22;;;;;;;7.90;5.13;;;16.60;99.90;;;;;;4997030;28;20395;-81
2023/06/04 06:48:48;;;;;;;7.68;5.65;;;16.60;99.90;;;;;;4998691;28;21194;-84
2023/06/04 06:51:14;;;;;;;5.73;5.23;;;16.80;99.90;;;;;;4997799;28;20388;-83
2023/06/04 06:53:40;;;;;;;5.63;5.07;;;16.80;99.90;;;;;;5016298;28;20393;-84
2023/06/04 06:56:06;;;;;;;5.73;5.00;;;16.80;99.90;;;;;;5017005;28;20396;-84
2023/06/04 06:58:32;;;;;;;6.72;5.20;;;16.90;99.90;;;;;;5011737;28;20487;-81
2023/06/04 07:00:57;;;;;;;6.20;5.60;;;16.90;99.90;;;;;;5012722;28;20472;-82
2023/06/04 07:03:23;;;;;;;6.70;5.10;;;16.90;99.90;;;;;;4998501;28;20943;-81
2023/06/04 07:05:48;;;;;;;6.10;5.00;;;17.00;99.90;;;;;;5013891;28;20755;-83
2023/06/04 07:08:14;;;;;;;6.20;5.60;;;17.20;99.90;;;;;;4995383;28;20389;-83
2023/06/04 07:10:40;;;;;;;6.50;5.72;;;17.20;99.90;;;;;;5010478;28;20422;-83
2023/06/04 07:13:05;;;;;;;7.55;5.45;;;17.20;99.90;;;;;;5010808;28;20396;-83
2023/06/04 07:15:31;;;;;;;6.07;5.07;;;17.40;99.90;;;;;;4998276;28;20395;-83
2023/06/04 07:17:56;;;;;;;5.87;5.27;;;17.50;99.90;;;;;;4998801;28;20442;-84
2023/06/04 07:20:22;;;;;;;7.70;5.80;;;17.70;99.90;;;;;;5013356;28;20395;-82
2023/06/04 07:22:47;;;;;;;6.27;5.63;;;17.50;99.90;;;;;;5019364;28;20419;-82
2023/06/04 07:25:13;;;;;;;6.43;5.20;;;17.60;99.90;;;;;;5022664;28;20452;-82
2023/06/04 07:27:39;;;;;;;6.13;5.53;;;17.50;99.90;;;;;;5016656;28;20824;-81
2023/06/04 07:30:07;;;;;;;6.90;5.40;;;17.70;99.90;;;;;;4999371;28;20385;-82
2023/06/04 07:32:33;;;;;;;5.35;4.85;;;17.90;99.90;;;;;;5014771;28;20909;-83
2023/06/04 07:34:58;;;;;;;5.63;5.07;;;18.10;99.90;;;;;;5017478;28;20391;-85
2023/06/04 07:37:24;;;;;;;6.10;5.50;;;18.50;99.90;;;;;;5015787;28;20416;-82
2023/06/04 07:39:50;;;;;;;6.25;5.65;;;18.40;99.90;;;;;;5016488;28;20911;-82
2023/06/04 07:42:15;;;;;;;6.20;5.50;;;18.30;99.90;;;;;;4996894;28;20419;-81
2023/06/04 07:44:41;;;;;;;6.77;5.57;;;18.70;99.90;;;;;;4998948;28;20770;-82
2023/06/04 07:47:06;;;;;;;6.60;5.10;;;18.80;99.90;;;;;;5013990;28;20377;-82
2023/06/04 07:49:32;;;;;;;6.45;5.10;;;18.80;99.90;;;;;;4996937;28;20397;-82
2023/06/04 07:51:57;;;;;;;6.37;5.57;;;18.60;99.90;;;;;;5015968;28;20403;-81
2023/06/04 07:54:23;;;;;;;5.35;4.85;;;18.30;99.90;;;;;;5000035;28;20400;-81
2023/06/04 07:56:49;;;;;;;6.50;5.07;;;18.30;99.90;;;;;;5018408;28;20794;-82
2023/06/04 07:59:14;;;;;;;5.60;4.80;;;18.50;99.90;;;;;;5018897;28;20397;-82
2023/06/04 08:01:40;;;;;;;5.10;4.60;;;18.40;99.90;;;;;;5019345;28;20396;-81
2023/06/04 08:04:05;;;;;;;6.60;5.00;;;18.60;99.90;;;;;;5018318;28;20408;-82
2023/06/04 08:06:31;;;;;;;5.53;5.03;;;18.70;99.90;;;;;;5000084;28;20391;-82
2023/06/04 08:08:57;;;;;;;5.70;5.10;;;18.60;99.90;;;;;;5019212;28;20463;-81
2023/06/04 08:11:22;;;;;;;5.37;4.77;;;18.50;99.90;;;;;;5014746;28;20405;-82
2023/06/04 08:13:48;;;;;;;6.35;5.32;;;18.60;99.90;;;;;;4998600;28;20413;-82
2023/06/04 08:16:14;;;;;;;7.25;4.90;;;18.40;99.90;;;;;;5014488;28;20415;-83
2023/06/04 08:18:40;;;;;;;6.40;5.70;;;18.50;99.90;;;;;;4996079;28;20433;-82
2023/06/04 08:21:08;;;;;;;6.47;5.88;;;18.40;99.90;;;;;;5006725;28;20396;-82
2023/06/04 08:23:34;;;;;;;6.28;5.30;;;18.60;99.90;;;;;;4987327;28;20444;-83
2023/06/04 08:25:59;;;;;;;6.30;5.70;;;18.20;99.90;;;;;;4986019;28;20398;-82
2023/06/04 08:28:25;;;;;;;8.80;5.30;;;18.10;99.90;;;;;;4993031;28;20401;-82
2023/06/04 08:30:50;;;;;;;6.57;5.87;;;18.20;99.90;;;;;;5013821;28;20451;-84
2023/06/04 08:33:16;;;;;;;5.32;4.90;;;18.40;99.90;;;;;;5006658;28;20422;-82
2023/06/04 08:35:42;;;;;;;5.83;5.23;;;18.40;99.90;;;;;;5022339;28;20405;-82
2023/06/04 08:38:07;;;;;;;6.22;5.63;;;18.40;99.90;;;;;;5000706;28;20409;-83
2023/06/04 08:40:34;;;;;;;6.53;5.67;;;18.50;99.90;;;;;;5000606;28;20918;-81
2023/06/04 08:43:01;;;;;;;6.57;5.20;;;18.30;99.90;;;;;;5014370;28;20452;-82
2023/06/04 08:45:27;;;;;;;6.70;5.43;;;18.60;99.90;;;;;;5008532;28;20405;-82
2023/06/04 08:47:54;;;;;;;5.97;5.20;;;18.20;99.90;;;;;;5007111;28;20450;-81
2023/06/04 08:50:22;;;;;;;7.70;5.45;;;18.20;99.90;;;;;;5009950;28;20491;-83
2023/06/04 08:52:52;;;;;;;7.43;4.70;;;18.30;99.90;;;;;;4996759;28;20412;-82
2023/06/04 08:55:17;;;;;;;5.82;4.55;;;18.20;99.90;;;;;;5002213;28;20408;-82
2023/06/04 08:57:44;;;;;;;7.07;4.30;;;18.40;99.90;;;;;;5018344;28;20385;-82
2023/06/04 09:00:09;;;;;;;4.40;4.00;;;18.40;99.90;;;;;;5018979;28;20389;-81
2023/06/04 09:02:39;;;;;;;4.38;3.97;;;18.40;99.90;;;;;;5032095;28;20388;-82
2023/06/04 09:05:10;;;;;;;4.80;4.18;;;18.40;99.90;;;;;;5022320;28;20466;-82
2023/06/04 09:07:37;;;;;;;5.47;3.60;;;18.40;99.90;;;;;;5032570;28;20416;-81
2023/06/04 09:10:06;;;;;;;4.72;3.90;;;18.80;99.90;;;;;;5021177;28;20759;-82
2023/06/04 09:12:33;;;;;;;6.65;3.80;;;18.80;99.90;;;;;;4988369;28;20744;-81
2023/06/04 09:14:58;;;;;;;4.18;3.63;;;18.80;99.90;;;;;;5007419;28;20400;-82
2023/06/04 09:17:25;;;;;;;7.00;3.73;;;18.80;99.90;;;;;;5021683;28;20399;-81
2023/06/04 09:19:51;;;;;;;4.43;3.50;;;18.90;99.90;;;;;;4995955;28;20425;-82
2023/06/04 09:22:17;;;;;;;5.45;4.00;;;18.80;99.90;;;;;;5024189;28;20412;-82
2023/06/04 09:24:49;;;;;;;5.00;3.50;;;18.70;99.90;;;;;;5001740;28;20420;-81
2023/06/04 09:27:19;;;;;;;4.47;3.50;;;18.60;99.90;;;;;;5016671;28;20400;-82
2023/06/04 09:29:58;;;;;;;4.80;3.40;;;19.00;99.90;;;;;;5017258;28;20412;-82
2023/06/04 09:32:29;;;;;;;4.00;3.60;;;19.20;99.90;;;;;;4998411;28;20395;-83
2023/06/04 09:35:15;;;;;;;4.70;3.50;;;19.20;99.90;;;;;;5016021;28;20385;-83
2023/06/04 09:38:01;;;;;;;4.03;3.35;;;18.90;99.90;;;;;;4984910;28;20404;-83
2023/06/04 09:40:37;;;;;;;3.88;3.47;;;18.80;99.90;;;;;;5014420;28;20470;-82
2023/06/04 09:43:02;;;;;;;4.20;3.33;;;18.90;99.90;;;;;;5015993;28;20397;-82
2023/06/04 09:45:32;;;;;;;5.33;3.67;;;19.10;99.90;;;;;;4996751;28;20422;-82
2023/06/04 09:47:58;;;;;;;4.00;3.60;;;18.80;99.90;;;;;;5008748;28;20460;-80
2023/06/04 09:50:30;;;;;;;6.30;4.40;;;18.90;99.90;;;;;;5036874;28;20415;-81
